Time;durP1;ratioP1;P1;durP2;ratioP2;P2;SDS_P1;SDS_P2;PMS_P1;PMS_P2;Temp;Humidity;BMP_temperature;BMP_pressure;BME280_temperature;BME280_humidity;BME280_pressure;Samples;Min_cycle;Max_cycle;Signal;HPM_P1;HPM_P2
2022/11/24 00:01:11;;;;;;;;;;;17.60;50.60;;;;;;5094449;28;19960;-71
2022/11/24 00:03:37;;;;;;;;;;;17.50;50.60;;;;;;5093260;28;19974;-72
2022/11/24 00:06:06;;;;;;;;;;;17.50;50.60;;;;;;5093825;28;19967;-72
2022/11/24 00:08:31;;;;;;;;;;;17.50;50.60;;;;;;5093286;28;19928;-71
2022/11/24 00:11:01;;;;;;;;;;;17.60;50.70;;;;;;5094104;28;20311;-71
2022/11/24 00:13:26;;;;;;;;;;;17.50;50.70;;;;;;5093072;28;19946;-71
2022/11/24 00:15:52;;;;;;;;;;;17.50;50.70;;;;;;5093046;28;19924;-72
2022/11/24 00:18:17;;;;;;;;;;;17.50;50.70;;;;;;5093227;28;19920;-71
2022/11/24 00:20:50;;;;;;;;;;;17.50;50.70;;;;;;5093257;28;19924;-71
2022/11/24 00:23:16;;;;;;;;;;;17.50;50.70;;;;;;5093135;28;19927;-71
2022/11/24 00:25:41;;;;;;;;;;;17.50;50.80;;;;;;5094178;28;20299;-71
2022/11/24 00:28:07;;;;;;;;;;;17.40;50.70;;;;;;5092787;28;19935;-72
2022/11/24 00:30:32;;;;;;;;;;;17.40;50.80;;;;;;5092717;28;19935;-73
2022/11/24 00:32:58;;;;;;;;;;;17.40;50.80;;;;;;5092972;28;19963;-72
2022/11/24 00:35:23;;;;;;;;;;;17.40;51.00;;;;;;5093244;28;20347;-72
2022/11/24 00:37:49;;;;;;;;;;;17.40;51.00;;;;;;5093939;28;20061;-71
2022/11/24 00:40:14;;;;;;;;;;;17.30;51.00;;;;;;5092745;28;20041;-71
2022/11/24 00:42:40;;;;;;;;;;;17.30;51.00;;;;;;5092884;28;19920;-71
2022/11/24 00:45:05;;;;;;;;;;;17.30;51.10;;;;;;5093837;28;20297;-71
2022/11/24 00:47:31;;;;;;;;;;;17.30;51.20;;;;;;5092712;28;20435;-71
2022/11/24 00:49:57;;;;;;;;;;;17.20;51.10;;;;;;5092255;28;19930;-71
2022/11/24 00:52:22;;;;;;;;;;;17.30;51.30;;;;;;5093565;28;19924;-73
2022/11/24 00:54:48;;;;;;;;;;;17.20;51.30;;;;;;5093551;28;19967;-71
2022/11/24 00:57:13;;;;;;;;;;;17.20;51.40;;;;;;5092459;28;19971;-71
2022/11/24 00:59:39;;;;;;;;;;;17.10;51.40;;;;;;5092070;28;20474;-73
2022/11/24 01:02:04;;;;;;;;;;;17.20;51.50;;;;;;5093350;28;19920;-71
2022/11/24 01:04:30;;;;;;;;;;;17.10;51.50;;;;;;5093265;28;19982;-72
2022/11/24 01:06:55;;;;;;;;;;;17.10;51.50;;;;;;5093323;28;19927;-71
2022/11/24 01:09:22;;;;;;;;;;;16.90;51.50;;;;;;5092863;28;20477;-71
2022/11/24 01:12:02;;;;;;;;;;;17.10;51.60;;;;;;5092012;28;19965;-72
2022/11/24 01:14:29;;;;;;;;;;;17.10;51.60;;;;;;5091888;28;19920;-71
2022/11/24 01:16:54;;;;;;;;;;;17.10;51.70;;;;;;5092215;28;19998;-72
2022/11/24 01:19:20;;;;;;;;;;;17.10;51.70;;;;;;5092162;28;20075;-71
2022/11/24 01:21:45;;;;;;;;;;;17.00;51.70;;;;;;5091667;28;19919;-71
2022/11/24 01:24:11;;;;;;;;;;;17.00;51.70;;;;;;5093132;28;19926;-73
2022/11/24 01:26:37;;;;;;;;;;;17.00;51.70;;;;;;5093173;28;19920;-72
2022/11/24 01:29:02;;;;;;;;;;;17.00;51.70;;;;;;5091741;28;19978;-71
2022/11/24 01:31:28;;;;;;;;;;;17.10;51.80;;;;;;5093160;28;20267;-71
2022/11/24 01:33:54;;;;;;;;;;;17.00;51.70;;;;;;5092909;28;19920;-72
2022/11/24 01:36:19;;;;;;;;;;;17.00;51.70;;;;;;5091848;28;19920;-71
2022/11/24 01:38:45;;;;;;;;;;;17.00;51.80;;;;;;5092789;28;19924;-73
2022/11/24 01:41:12;;;;;;;;;;;16.90;51.80;;;;;;5092712;28;20001;-71
2022/11/24 01:43:38;;;;;;;;;;;17.00;51.80;;;;;;5091411;28;19920;-74
2022/11/24 01:46:11;;;;;;;;;;;16.90;51.80;;;;;;5092552;28;19927;-72
2022/11/24 01:48:39;;;;;;;;;;;17.00;51.90;;;;;;5092759;28;19989;-73
2022/11/24 01:51:07;;;;;;;;;;;16.90;51.90;;;;;;5092497;28;19932;-72
2022/11/24 01:53:34;;;;;;;;;;;16.90;51.90;;;;;;5091639;28;19920;-72
2022/11/24 01:55:59;;;;;;;;;;;16.90;51.90;;;;;;5092602;28;19920;-72
2022/11/24 01:58:27;;;;;;;;;;;17.00;52.00;;;;;;5092532;28;20434;-72
2022/11/24 02:00:53;;;;;;;;;;;17.00;51.70;;;;;;5092511;28;20384;-71
2022/11/24 02:03:20;;;;;;;;;;;17.50;51.10;;;;;;5091541;28;19956;-71
2022/11/24 02:06:03;;;;;;;;;;;17.90;50.20;;;;;;5091086;28;19971;-71
2022/11/24 02:11:12;;;;;;;;;;;18.90;48.20;;;;;;5089789;28;19912;-71
2022/11/24 02:13:38;;;;;;;;;;;19.50;47.00;;;;;;5089875;28;19927;-71
2022/11/24 02:16:05;;;;;;;;;;;20.20;45.80;;;;;;5088844;28;19925;-71
2022/11/24 02:18:31;;;;;;;;;;;21.00;44.30;;;;;;5105324;28;19999;-71
2022/11/24 02:20:57;;;;;;;;;;;21.60;42.90;;;;;;5088509;28;20007;-72
2022/11/24 02:23:23;;;;;;;;;;;22.30;41.70;;;;;;5088643;28;19942;-71
2022/11/24 02:25:54;;;;;;;;;;;22.70;40.70;;;;;;5105442;28;20005;-72
2022/11/24 02:28:21;;;;;;;;;;;23.20;40.00;;;;;;5088567;28;19926;-71
2022/11/24 02:30:47;;;;;;;;;;;23.40;39.30;;;;;;5089502;28;19924;-73
2022/11/24 02:33:13;;;;;;;;;;;23.60;38.90;;;;;;5088096;28;19973;-71
2022/11/24 02:35:38;;;;;;;;;;;23.70;38.70;;;;;;5088430;28;20016;-72
2022/11/24 02:38:04;;;;;;;;;;;23.70;38.70;;;;;;5087348;28;19921;-71
2022/11/24 02:40:30;;;;;;;;;;;23.50;38.80;;;;;;5087851;28;19921;-73
2022/11/24 02:43:00;;;;;;;;;;;23.40;39.00;;;;;;5089225;28;19927;-72
2022/11/24 02:45:26;;;;;;;;;;;23.20;39.30;;;;;;5087307;28;19955;-71
2022/11/24 02:47:52;;;;;;;;;;;22.90;39.60;;;;;;5087764;28;19927;-72
2022/11/24 02:50:17;;;;;;;;;;;22.70;39.90;;;;;;5089073;28;19924;-71
2022/11/24 02:52:43;;;;;;;;;;;22.50;40.30;;;;;;5089061;28;20264;-72
2022/11/24 02:55:08;;;;;;;;;;;22.30;40.70;;;;;;5088041;28;19928;-72
2022/11/24 02:57:34;;;;;;;;;;;22.00;41.00;;;;;;5087980;28;19935;-71
2022/11/24 02:59:59;;;;;;;;;;;21.80;41.40;;;;;;5088130;28;19920;-72
2022/11/24 03:02:25;;;;;;;;;;;21.60;41.80;;;;;;5087560;28;20206;-73
2022/11/24 03:04:50;;;;;;;;;;;21.40;42.10;;;;;;5088729;28;20337;-71
2022/11/24 03:07:16;;;;;;;;;;;21.20;42.50;;;;;;5087900;28;20330;-73
2022/11/24 03:09:42;;;;;;;;;;;21.00;42.80;;;;;;5087236;28;20287;-72
2022/11/24 03:12:08;;;;;;;;;;;20.80;43.10;;;;;;5088806;28;19927;-72
2022/11/24 03:14:33;;;;;;;;;;;20.70;43.40;;;;;;5088638;28;19928;-71
2022/11/24 03:16:59;;;;;;;;;;;20.50;43.70;;;;;;5087468;28;19920;-73
2022/11/24 03:19:24;;;;;;;;;;;20.40;44.00;;;;;;5088515;28;19999;-71
2022/11/24 03:21:50;;;;;;;;;;;20.20;44.20;;;;;;5077886;28;20011;-71
2022/11/24 03:24:15;;;;;;;;;;;20.10;44.30;;;;;;5073810;28;19961;-72
2022/11/24 03:26:41;;;;;;;;;;;20.20;44.50;;;;;;5073684;28;19927;-71
2022/11/24 03:29:07;;;;;;;;;;;20.30;44.40;;;;;;5073553;28;20022;-71
2022/11/24 03:31:32;;;;;;;;;;;20.30;44.30;;;;;;5074009;28;19925;-72
2022/11/24 03:33:58;;;;;;;;;;;20.40;44.20;;;;;;5073448;28;19921;-71
2022/11/24 03:36:24;;;;;;;;;;;20.40;44.10;;;;;;5073914;28;19928;-73
2022/11/24 03:38:49;;;;;;;;;;;20.50;44.00;;;;;;5074927;28;20001;-71
2022/11/24 03:41:15;;;;;;;;;;;20.50;44.00;;;;;;5073426;28;19920;-71
2022/11/24 03:43:40;;;;;;;;;;;20.50;43.90;;;;;;5073456;28;20050;-71
2022/11/24 03:46:06;;;;;;;;;;;20.60;43.70;;;;;;5074621;28;20003;-71
2022/11/24 03:48:31;;;;;;;;;;;20.70;43.60;;;;;;5074667;28;20429;-71
2022/11/24 03:50:58;;;;;;;;;;;20.70;43.30;;;;;;5073152;28;20035;-71
2022/11/24 03:53:24;;;;;;;;;;;20.80;43.20;;;;;;5073312;28;20379;-72
2022/11/24 03:55:50;;;;;;;;;;;20.80;43.10;;;;;;5073035;28;19920;-71
2022/11/24 03:58:16;;;;;;;;;;;21.00;43.00;;;;;;5073432;28;19920;-72
2022/11/24 04:00:42;;;;;;;;;;;20.90;42.90;;;;;;5073116;28;20540;-71
2022/11/24 04:03:07;;;;;;;;;;;20.90;42.80;;;;;;5073419;28;20418;-72
2022/11/24 04:05:35;;;;;;;;;;;20.90;42.80;;;;;;5072886;28;20170;-71
2022/11/24 04:08:02;;;;;;;;;;;21.00;42.80;;;;;;5073302;28;19924;-72
2022/11/24 04:10:28;;;;;;;;;;;21.00;42.70;;;;;;5073788;28;19925;-71
2022/11/24 04:12:54;;;;;;;;;;;21.10;42.70;;;;;;5074143;28;19920;-71
2022/11/24 04:15:20;;;;;;;;;;;21.00;42.60;;;;;;5072129;28;20418;-72
2022/11/24 04:17:46;;;;;;;;;;;21.00;42.70;;;;;;5072845;28;19942;-71
2022/11/24 04:20:12;;;;;;;;;;;20.90;42.80;;;;;;5072076;28;19920;-72
2022/11/24 04:22:38;;;;;;;;;;;20.90;42.90;;;;;;5072691;28;19920;-73
2022/11/24 04:25:04;;;;;;;;;;;20.80;42.90;;;;;;5074140;28;20396;-73
2022/11/24 04:27:31;;;;;;;;;;;20.90;43.00;;;;;;5073823;28;20304;-73
2022/11/24 04:29:56;;;;;;;;;;;20.80;43.00;;;;;;5072466;28;19924;-71
2022/11/24 04:32:22;;;;;;;;;;;20.80;43.00;;;;;;5071812;28;19920;-73
2022/11/24 04:34:48;;;;;;;;;;;20.80;43.00;;;;;;5073383;28;19927;-71
2022/11/24 04:37:13;;;;;;;;;;;20.70;43.00;;;;;;5072568;28;20058;-73
2022/11/24 04:39:39;;;;;;;;;;;20.70;43.00;;;;;;5072618;28;19920;-72
2022/11/24 04:42:04;;;;;;;;;;;20.70;43.00;;;;;;5072252;28;19924;-73
2022/11/24 04:44:30;;;;;;;;;;;20.80;43.00;;;;;;5072233;28;19974;-72
2022/11/24 04:46:55;;;;;;;;;;;20.70;42.90;;;;;;5072583;28;20019;-71
2022/11/24 04:49:21;;;;;;;;;;;20.80;43.00;;;;;;5072293;28;20380;-71
2022/11/24 04:51:47;;;;;;;;;;;20.80;42.90;;;;;;5073292;28;19927;-71
2022/11/24 04:54:12;;;;;;;;;;;20.80;42.90;;;;;;5072301;28;19921;-71
2022/11/24 04:56:39;;;;;;;;;;;20.80;42.80;;;;;;5070808;28;19921;-71
2022/11/24 04:59:04;;;;;;;;;;;20.80;42.80;;;;;;5073150;28;20288;-71
2022/11/24 05:01:30;;;;;;;;;;;20.80;42.70;;;;;;5073253;28;19920;-71
2022/11/24 05:03:57;;;;;;;;;;;20.90;42.70;;;;;;5072205;28;19921;-71
2022/11/24 05:06:22;;;;;;;;;;;20.90;42.70;;;;;;5071838;28;19955;-72
2022/11/24 05:08:49;;;;;;;;;;;20.80;42.60;;;;;;5071456;28;19959;-72
2022/11/24 05:11:14;;;;;;;;;;;20.90;42.50;;;;;;5071728;28;19924;-71
2022/11/24 05:13:40;;;;;;;;;;;21.00;42.50;;;;;;5072963;28;19920;-73
2022/11/24 05:16:06;;;;;;;;;;;21.00;42.30;;;;;;5072021;28;19982;-71
2022/11/24 05:18:32;;;;;;;;;;;21.00;42.20;;;;;;5071923;28;19926;-71
2022/11/24 05:20:57;;;;;;;;;;;21.00;42.10;;;;;;5071575;28;19924;-71
2022/11/24 05:23:23;;;;;;;;;;;21.10;42.00;;;;;;5073151;28;19924;-73
2022/11/24 05:25:49;;;;;;;;;;;21.10;42.00;;;;;;5071704;28;19921;-71
2022/11/24 05:28:15;;;;;;;;;;;21.30;42.60;;;;;;5055031;28;19921;-71
2022/11/24 05:30:41;;;;;;;;;;;21.30;41.80;;;;;;5071333;28;20265;-71
2022/11/24 05:33:07;;;;;;;;;;;21.40;41.60;;;;;;5071607;28;19950;-71
2022/11/24 05:35:34;;;;;;;;;;;21.40;41.50;;;;;;5071392;28;20371;-71
2022/11/24 05:37:59;;;;;;;;;;;21.50;41.40;;;;;;5071515;28;19921;-71
2022/11/24 05:40:25;;;;;;;;;;;21.50;41.20;;;;;;5071208;28;19973;-73
2022/11/24 05:42:50;;;;;;;;;;;21.50;41.10;;;;;;5072514;28;19955;-71
2022/11/24 05:45:17;;;;;;;;;;;21.60;41.20;;;;;;5072245;28;19920;-72
2022/11/24 05:47:43;;;;;;;;;;;21.50;41.10;;;;;;5072487;28;20337;-71
2022/11/24 05:50:10;;;;;;;;;;;21.50;41.10;;;;;;5071054;28;20042;-71
2022/11/24 05:52:35;;;;;;;;;;;21.50;41.10;;;;;;5071421;28;19925;-72
2022/11/24 05:55:01;;;;;;;;;;;21.50;41.10;;;;;;5072426;28;20383;-71
2022/11/24 05:57:26;;;;;;;;;;;21.50;41.10;;;;;;5071022;28;19955;-71
2022/11/24 05:59:52;;;;;;;;;;;21.40;41.10;;;;;;5071276;28;19920;-73
2022/11/24 06:02:18;;;;;;;;;;;21.40;41.20;;;;;;5072279;28;20372;-71
2022/11/24 06:04:43;;;;;;;;;;;21.40;41.20;;;;;;5071207;28;19924;-71
2022/11/24 06:07:11;;;;;;;;;;;21.40;41.20;;;;;;5072241;28;19921;-71
2022/11/24 06:09:37;;;;;;;;;;;21.30;41.30;;;;;;5071794;28;19947;-71
2022/11/24 06:12:03;;;;;;;;;;;21.30;41.30;;;;;;5070941;28;19924;-71
2022/11/24 06:14:29;;;;;;;;;;;21.20;41.30;;;;;;5072107;28;20274;-71
2022/11/24 06:16:54;;;;;;;;;;;21.30;41.40;;;;;;5072241;28;19946;-71
2022/11/24 06:19:20;;;;;;;;;;;21.20;41.40;;;;;;5071064;28;19924;-73
2022/11/24 06:21:45;;;;;;;;;;;21.20;41.40;;;;;;5070799;28;20186;-71
2022/11/24 06:24:11;;;;;;;;;;;21.20;41.40;;;;;;5072022;28;19920;-71
2022/11/24 06:26:36;;;;;;;;;;;21.20;41.50;;;;;;5072178;28;19924;-71
2022/11/24 06:29:02;;;;;;;;;;;21.10;41.50;;;;;;5071998;28;19927;-73
2022/11/24 06:31:27;;;;;;;;;;;21.10;41.50;;;;;;5070729;28;19956;-73
2022/11/24 06:33:53;;;;;;;;;;;21.10;41.60;;;;;;5070966;28;19955;-71
2022/11/24 06:36:19;;;;;;;;;;;21.10;41.60;;;;;;5071978;28;20287;-73
2022/11/24 06:38:44;;;;;;;;;;;21.00;41.60;;;;;;5071863;28;19963;-73
2022/11/24 06:41:11;;;;;;;;;;;21.00;41.70;;;;;;5070572;28;19928;-71
2022/11/24 06:43:37;;;;;;;;;;;21.00;41.70;;;;;;5072070;28;19921;-70
2022/11/24 06:46:03;;;;;;;;;;;21.10;41.70;;;;;;5069543;28;20285;-70
2022/11/24 06:48:29;;;;;;;;;;;21.20;41.60;;;;;;5070204;28;20021;-77
2022/11/24 06:50:58;;;;;;;;;;;21.50;41.40;;;;;;5071404;28;20291;-78
2022/11/24 06:53:23;;;;;;;;;;;21.90;41.00;;;;;;5069548;28;19928;-81
2022/11/24 06:55:49;;;;;;;;;;;22.80;40.20;;;;;;5067926;28;19954;-74
2022/11/24 06:58:15;;;;;;;;;;;23.50;39.20;;;;;;5069523;28;20287;-77
2022/11/24 07:00:40;;;;;;;;;;;24.00;38.20;;;;;;5070472;28;19946;-72
2022/11/24 07:03:06;;;;;;;;;;;24.30;37.60;;;;;;5068064;28;19966;-68
2022/11/24 07:05:31;;;;;;;;;;;24.20;37.20;;;;;;5054916;28;19929;-72
2022/11/24 07:07:59;;;;;;;;;;;23.90;37.80;;;;;;5048897;28;19928;-71
2022/11/24 07:10:24;;;;;;;;;;;23.60;38.50;;;;;;5056056;28;19986;-70
2022/11/24 07:12:50;;;;;;;;;;;23.30;39.40;;;;;;5067070;28;19924;-68
2022/11/24 07:15:15;;;;;;;;;;;23.10;40.00;;;;;;5070414;28;19928;-70
2022/11/24 07:17:41;;;;;;;;;;;22.70;41.40;;;;;;5064006;28;19921;-71
2022/11/24 07:20:07;;;;;;;;;;;22.50;41.20;;;;;;5068821;28;19925;-72
2022/11/24 07:22:33;;;;;;;;;;;22.40;41.70;;;;;;5072118;28;20269;-71
2022/11/24 07:24:58;;;;;;;;;;;22.30;42.00;;;;;;5068951;28;19927;-66
2022/11/24 07:27:25;;;;;;;;;;;22.20;42.20;;;;;;5070105;28;19921;-72
2022/11/24 07:29:51;;;;;;;;;;;22.00;42.50;;;;;;5070016;28;20007;-73
2022/11/24 07:32:16;;;;;;;;;;;21.70;42.80;;;;;;5067487;28;20011;-66
2022/11/24 07:34:42;;;;;;;;;;;21.50;43.30;;;;;;5068445;28;20283;-71
2022/11/24 07:37:07;;;;;;;;;;;21.30;43.70;;;;;;5045520;28;19924;-68
2022/11/24 07:39:33;;;;;;;;;;;21.10;44.10;;;;;;5050051;28;19966;-68
2022/11/24 07:41:59;;;;;;;;;;;20.90;44.50;;;;;;5054941;28;20019;-69
2022/11/24 07:44:24;;;;;;;;;;;20.90;44.70;;;;;;5056831;28;19928;-68
2022/11/24 07:46:50;;;;;;;;;;;20.90;44.90;;;;;;5057876;28;19931;-67
2022/11/24 07:49:16;;;;;;;;;;;20.90;44.90;;;;;;5051513;28;19925;-68
2022/11/24 07:51:42;;;;;;;;;;;21.00;44.80;;;;;;5055586;28;19920;-69
2022/11/24 07:54:07;;;;;;;;;;;21.10;44.60;;;;;;5052521;28;19974;-72
2022/11/24 07:56:33;;;;;;;;;;;21.20;44.50;;;;;;5052236;28;20308;-70
2022/11/24 07:58:58;;;;;;;;;;;21.30;44.40;;;;;;5053508;28;19994;-68
2022/11/24 08:01:24;;;;;;;;;;;21.40;44.30;;;;;;5069167;28;20548;-74
2022/11/24 08:03:50;;;;;;;;;;;21.60;44.00;;;;;;5056492;28;19972;-72
2022/11/24 08:06:15;;;;;;;;;;;21.70;43.80;;;;;;5054784;28;19921;-71
2022/11/24 08:08:41;;;;;;;;;;;21.90;43.80;;;;;;5051981;28;19955;-69
2022/11/24 08:11:08;;;;;;;;;;;22.00;43.60;;;;;;5053083;28;20355;-70
2022/11/24 08:13:35;;;;;;;;;;;22.10;43.40;;;;;;5050088;28;19935;-71
2022/11/24 08:16:17;;;;;;;;;;;22.10;43.30;;;;;;5052477;28;19999;-69
2022/11/24 08:18:43;;;;;;;;;;;22.10;43.20;;;;;;5052277;28;19930;-70
2022/11/24 08:21:12;;;;;;;;;;;22.20;43.30;;;;;;5051882;28;20024;-68
2022/11/24 08:23:38;;;;;;;;;;;22.10;43.40;;;;;;5041239;28;19995;-68
2022/11/24 08:26:07;;;;;;;;;;;22.10;43.50;;;;;;5050755;28;20007;-67
2022/11/24 08:28:33;;;;;;;;;;;22.00;43.60;;;;;;5051105;28;20575;-70
2022/11/24 08:31:01;;;;;;;;;;;21.90;43.90;;;;;;5051181;28;19970;-72
2022/11/24 08:33:26;;;;;;;;;;;21.80;44.10;;;;;;5071506;28;19931;-72
2022/11/24 08:35:52;;;;;;;;;;;21.70;44.40;;;;;;5052561;28;19921;-70
2022/11/24 08:38:18;;;;;;;;;;;21.60;44.70;;;;;;5049274;28;19983;-72
2022/11/24 08:40:43;;;;;;;;;;;21.90;44.80;;;;;;5053535;28;19928;-76
2022/11/24 08:43:09;;;;;;;;;;;22.30;44.50;;;;;;5052945;28;20371;-72
2022/11/24 08:45:34;;;;;;;;;;;23.00;43.70;;;;;;5047886;28;20571;-70
2022/11/24 08:48:00;;;;;;;;;;;23.50;42.60;;;;;;5056994;28;20767;-73
2022/11/24 08:50:25;;;;;;;;;;;24.20;41.50;;;;;;5056251;28;20391;-71
2022/11/24 08:52:52;;;;;;;;;;;24.70;40.40;;;;;;5052888;28;19932;-72
2022/11/24 08:55:18;;;;;;;;;;;25.30;39.60;;;;;;5049789;28;19938;-70
2022/11/24 08:57:43;;;;;;;;;;;25.50;38.80;;;;;;5045051;28;19924;-73
2022/11/24 09:00:09;;;;;;;;;;;25.90;38.40;;;;;;5047501;28;20440;-72
2022/11/24 09:02:35;;;;;;;;;;;26.20;38.00;;;;;;5047530;28;19925;-72
2022/11/24 09:05:00;;;;;;;;;;;26.40;37.70;;;;;;5051678;28;19924;-75
2022/11/24 09:07:26;;;;;;;;;;;26.50;37.40;;;;;;5050837;28;19925;-70
2022/11/24 09:09:51;;;;;;;;;;;26.20;37.60;;;;;;5046479;28;19975;-68
2022/11/24 09:12:17;;;;;;;;;;;26.10;37.90;;;;;;5068171;28;19924;-70
2022/11/24 09:14:42;;;;;;;;;;;25.90;38.10;;;;;;5051967;28;21083;-68
2022/11/24 09:17:08;;;;;;;;;;;25.70;38.40;;;;;;5049465;28;20047;-72
2022/11/24 09:19:33;;;;;;;;;;;25.50;38.90;;;;;;5051001;28;20807;-72
2022/11/24 09:21:59;;;;;;;;;;;25.30;39.20;;;;;;5045792;28;19932;-68
2022/11/24 09:24:24;;;;;;;;;;;25.20;39.60;;;;;;5053012;28;19931;-69
2022/11/24 09:26:52;;;;;;;;;;;25.00;39.90;;;;;;5069310;28;19925;-70
2022/11/24 09:29:17;;;;;;;;;;;24.90;40.30;;;;;;5050317;28;20410;-71
2022/11/24 09:31:43;;;;;;;;;;;24.70;40.50;;;;;;5044639;28;20011;-74
2022/11/24 09:34:11;;;;;;;;;;;24.60;40.80;;;;;;5056440;28;19920;-74
2022/11/24 09:36:36;;;;;;;;;;;24.50;41.10;;;;;;5054316;28;19925;-68
2022/11/24 09:39:02;;;;;;;;;;;24.30;41.20;;;;;;5053190;28;19936;-67
2022/11/24 09:41:47;;;;;;;;;;;23.90;41.50;;;;;;5050787;28;19921;-68
2022/11/24 09:44:33;;;;;;;;;;;23.50;41.80;;;;;;5055184;28;19932;-71
2022/11/24 09:49:43;;;;;;;;;;;23.40;42.20;;;;;;5088212;27;20395;-67
2022/11/24 09:52:11;;;;;;;;;;;23.30;42.10;;;;;;5119017;27;19931;-69
2022/11/24 09:54:40;;;;;;;;;;;23.40;42.50;;;;;;5089238;28;19921;-69
2022/11/24 09:57:06;;;;;;;;;;;23.40;42.50;;;;;;5091350;28;19924;-66
2022/11/24 09:59:31;;;;;;;;;;;23.50;42.40;;;;;;5090901;28;19954;-70
2022/11/24 10:01:58;;;;;;;;;;;23.80;42.20;;;;;;5092271;28;19924;-71
2022/11/24 10:04:30;;;;;;;;;;;24.20;41.80;;;;;;5086955;28;19959;-73
2022/11/24 10:07:00;;;;;;;;;;;24.50;41.30;;;;;;5087917;28;20394;-70
2022/11/24 10:09:35;;;;;;;;;;;24.70;40.90;;;;;;5088047;28;20399;-71
2022/11/24 10:20:35;;;;;;;;;;;24.70;40.40;;;;;;5104115;27;1850474;-72
2022/11/24 10:23:14;;;;;;;;;;;24.60;40.70;;;;;;5131187;27;19972;-65
2022/11/24 10:28:18;;;;;;;;;;;24.40;41.00;;;;;;5097585;27;2033389;-67
2022/11/24 10:30:44;;;;;;;;;;;24.40;41.30;;;;;;5145140;27;19918;-68
2022/11/24 10:33:17;;;;;;;;;;;24.30;41.50;;;;;;5147531;27;19925;-66
2022/11/24 10:35:45;;;;;;;;;;;24.30;41.80;;;;;;5154052;27;21283;-66
2022/11/24 10:38:31;;;;;;;;;;;24.10;42.00;;;;;;5134564;27;20404;-67
2022/11/24 10:41:00;;;;;;;;;;;24.10;42.30;;;;;;5140239;27;19927;-68
2022/11/24 10:43:27;;;;;;;;;;;24.00;42.50;;;;;;5140597;27;19923;-73
2022/11/24 10:45:54;;;;;;;;;;;23.90;42.70;;;;;;5143537;27;19971;-71
2022/11/24 10:48:23;;;;;;;;;;;23.90;43.60;;;;;;5159748;27;19938;-70
2022/11/24 10:50:51;;;;;;;;;;;23.80;43.00;;;;;;5143571;27;20423;-70
2022/11/24 10:53:23;;;;;;;;;;;23.80;43.10;;;;;;5157518;27;19937;-68
2022/11/24 10:58:37;;;;;;;;;;;23.90;43.30;;;;;;5075777;27;19999;-70
2022/11/24 11:01:19;;;;;;;;;;;24.00;43.20;;;;;;5071063;28;20385;-67
2022/11/24 11:06:29;;;;;;;;;;;23.70;43.20;;;;;;5077274;27;20565;-69
2022/11/24 11:09:16;;;;;;;;;;;23.30;43.50;;;;;;5089000;28;19925;-68
2022/11/24 11:11:42;;;;;;;;;;;23.40;43.90;;;;;;5087588;28;19924;-67
2022/11/24 11:14:09;;;;;;;;;;;23.50;43.80;;;;;;5113955;27;19978;-67
2022/11/24 11:16:51;;;;;;;;;;;23.70;43.60;;;;;;5081077;28;19938;-68
2022/11/24 11:19:34;;;;;;;;;;;24.00;43.10;;;;;;5078247;28;19928;-68
2022/11/24 11:22:11;;;;;;;;;;;24.20;42.60;;;;;;5076253;28;19928;-67
2022/11/24 11:24:37;;;;;;;;;;;24.40;42.30;;;;;;5074627;28;19935;-70
2022/11/24 11:27:04;;;;;;;;;;;24.30;42.10;;;;;;5071779;28;19924;-74
2022/11/24 11:29:30;;;;;;;;;;;24.10;42.30;;;;;;5074365;28;20011;-71
2022/11/24 11:31:57;;;;;;;;;;;24.10;42.60;;;;;;5069281;28;19985;-72
2022/11/24 11:34:23;;;;;;;;;;;23.90;42.80;;;;;;5069545;28;19989;-71
2022/11/24 11:36:50;;;;;;;;;;;23.70;42.90;;;;;;5072820;28;19920;-71
2022/11/24 11:39:21;;;;;;;;;;;23.70;43.20;;;;;;5079771;28;19928;-70
2022/11/24 11:41:48;;;;;;;;;;;23.70;43.10;;;;;;5115639;27;19928;-70
2022/11/24 11:44:20;;;;;;;;;;;23.60;43.10;;;;;;5072397;28;20044;-71
2022/11/24 11:46:46;;;;;;;;;;;23.70;43.40;;;;;;5104662;27;19932;-71
2022/11/24 11:49:12;;;;;;;;;;;23.60;43.40;;;;;;5080771;28;19929;-69
2022/11/24 11:51:47;;;;;;;;;;;23.60;43.40;;;;;;5082271;28;19946;-70
2022/11/24 11:54:33;;;;;;;;;;;23.60;44.30;;;;;;5088914;28;19938;-70
2022/11/24 11:57:06;;;;;;;;;;;23.70;43.50;;;;;;5077855;28;19925;-72
2022/11/24 12:02:34;;;;;;;;;;;24.00;43.30;;;;;;5062012;28;19920;-71
2022/11/24 12:05:01;;;;;;;;;;;24.00;43.30;;;;;;5068812;28;20036;-72
2022/11/24 12:10:29;;;;;;;;;;;23.90;43.50;;;;;;5069241;28;19917;-73
2022/11/24 12:13:14;;;;;;;;;;;23.80;43.70;;;;;;5059550;28;20071;-71
2022/11/24 12:15:44;;;;;;;;;;;23.70;44.10;;;;;;5070748;28;19921;-67
2022/11/24 12:18:29;;;;;;;;;;;23.50;44.30;;;;;;5056412;28;19928;-69
2022/11/24 12:26:34;;;;;;;;;;;23.20;45.10;;;;;;5032401;28;19928;-77
2022/11/24 12:29:07;;;;;;;;;;;23.10;45.50;;;;;;5029357;28;20004;-79
2022/11/24 12:31:52;;;;;;;;;;;22.90;45.80;;;;;;5032340;28;19937;-72
2022/11/24 12:37:20;;;;;;;;;;;22.70;46.40;;;;;;5085233;27;1874306;-72
2022/11/24 12:40:06;;;;;;;;;;;22.60;46.60;;;;;;5151495;27;19979;-71
2022/11/24 12:45:21;;;;;;;;;;;22.20;47.20;;;;;;5084971;27;1871803;-73
2022/11/24 12:50:28;;;;;;;;;;;22.10;48.00;;;;;;5058500;28;20481;-72
2022/11/24 12:53:01;;;;;;;;;;;22.00;48.20;;;;;;5057579;28;19933;-70
2022/11/24 12:55:27;;;;;;;;;;;21.90;48.40;;;;;;5060558;28;19925;-72
2022/11/24 13:00:57;;;;;;;;;;;21.70;48.90;;;;;;5062631;28;20060;-69
2022/11/24 13:03:29;;;;;;;;;;;21.70;49.20;;;;;;5054697;28;20071;-73
2022/11/24 13:06:06;;;;;;;;;;;21.50;49.50;;;;;;5050950;28;21556;-69
2022/11/24 13:08:35;;;;;;;;;;;21.40;49.90;;;;;;5048839;28;19971;-68
2022/11/24 13:11:20;;;;;;;;;;;21.40;50.40;;;;;;5048206;28;19932;-70
2022/11/24 13:14:06;;;;;;;;;;;21.30;50.70;;;;;;5058913;28;20004;-71
2022/11/24 13:16:32;;;;;;;;;;;21.20;51.10;;;;;;5060463;28;19937;-69
2022/11/24 13:19:00;;;;;;;;;;;21.10;51.40;;;;;;5052310;28;19956;-67
2022/11/24 13:24:23;;;;;;;;;;;21.00;51.70;;;;;;5043812;28;19929;-67
2022/11/24 13:26:50;;;;;;;;;;;21.00;51.80;;;;;;5044367;28;19937;-70
2022/11/24 13:58:57;;;;;;;;;;;20.40;52.40;;;;;;5051171;28;19925;-67
2022/11/24 14:01:39;;;;;;;;;;;20.40;52.40;;;;;;5062061;28;19932;-68
2022/11/24 14:04:11;;;;;;;;;;;20.40;52.50;;;;;;5045409;28;20274;-68
2022/11/24 14:06:39;;;;;;;;;;;20.30;52.70;;;;;;5066604;28;19932;-66
2022/11/24 14:09:15;;;;;;;;;;;20.30;52.80;;;;;;5047526;28;19927;-68
2022/11/24 14:11:41;;;;;;;;;;;20.30;52.80;;;;;;5068833;28;19932;-68
2022/11/24 14:14:19;;;;;;;;;;;20.20;52.70;;;;;;5052552;28;19925;-68
2022/11/24 14:16:44;;;;;;;;;;;20.20;52.80;;;;;;5058746;28;20016;-70
2022/11/24 14:19:10;;;;;;;;;;;20.20;52.90;;;;;;5071011;28;19925;-69
2022/11/24 14:21:39;;;;;;;;;;;20.20;52.60;;;;;;5069047;28;19925;-69
2022/11/24 14:26:49;;;;;;;;;;;20.10;52.60;;;;;;5061071;28;19931;-68
2022/11/24 14:29:16;;;;;;;;;;;20.00;52.50;;;;;;5059955;28;20433;-67
2022/11/24 14:31:50;;;;;;;;;;;20.00;52.50;;;;;;5056475;28;19971;-69
2022/11/24 14:34:19;;;;;;;;;;;20.00;52.50;;;;;;5053819;28;20373;-68
2022/11/24 14:36:46;;;;;;;;;;;20.00;52.60;;;;;;5052444;28;20442;-65
2022/11/24 14:39:12;;;;;;;;;;;19.90;52.60;;;;;;5054209;28;20384;-64
2022/11/24 14:41:42;;;;;;;;;;;19.90;52.60;;;;;;5073068;28;19943;-69
2022/11/24 14:44:15;;;;;;;;;;;19.90;52.70;;;;;;5062657;28;20007;-71
2022/11/24 14:46:41;;;;;;;;;;;19.80;52.70;;;;;;5070239;28;19928;-70
2022/11/24 14:49:07;;;;;;;;;;;19.80;52.70;;;;;;5056767;28;20019;-70
2022/11/24 14:51:33;;;;;;;;;;;19.80;52.80;;;;;;5061914;28;19928;-70
2022/11/24 14:54:02;;;;;;;;;;;19.70;52.80;;;;;;5044988;28;19944;-70
2022/11/24 14:56:30;;;;;;;;;;;19.70;52.80;;;;;;5054270;28;19925;-70
2022/11/24 14:58:56;;;;;;;;;;;19.70;52.80;;;;;;5054424;28;19924;-70
2022/11/24 15:04:25;;;;;;;;;;;19.60;52.90;;;;;;5079709;27;19939;-70
2022/11/24 15:07:11;;;;;;;;;;;19.60;52.90;;;;;;5074097;28;20030;-70
2022/11/24 15:09:52;;;;;;;;;;;19.60;53.00;;;;;;5070743;28;19921;-70
2022/11/24 15:12:38;;;;;;;;;;;19.50;53.00;;;;;;5067740;28;19925;-70
2022/11/24 15:15:21;;;;;;;;;;;19.50;53.00;;;;;;5068108;28;20352;-71
2022/11/24 15:17:48;;;;;;;;;;;19.50;52.90;;;;;;5063939;28;19925;-71
2022/11/24 15:20:18;;;;;;;;;;;19.50;52.90;;;;;;5067394;28;19921;-70
2022/11/24 15:22:44;;;;;;;;;;;19.50;52.80;;;;;;5072960;28;19983;-71
2022/11/24 15:25:26;;;;;;;;;;;19.40;52.80;;;;;;5074738;28;19920;-71
2022/11/24 15:27:52;;;;;;;;;;;19.50;52.80;;;;;;5056354;28;19925;-70
2022/11/24 15:30:17;;;;;;;;;;;19.40;52.70;;;;;;5072428;28;19931;-70
2022/11/24 15:32:58;;;;;;;;;;;19.40;52.60;;;;;;5069175;28;20289;-71
2022/11/24 15:35:25;;;;;;;;;;;19.40;52.60;;;;;;5074783;28;19975;-71
2022/11/24 15:37:50;;;;;;;;;;;19.40;52.70;;;;;;5107120;28;19928;-71
2022/11/24 15:40:17;;;;;;;;;;;19.40;52.60;;;;;;5072040;28;19925;-71
2022/11/24 15:42:48;;;;;;;;;;;19.40;52.60;;;;;;5075066;28;19929;-70